KVYS/VYS METAR and TAF weather

Enter ICAO airport designator
Station Type Date Time Source
KVYS METAR 2020/01/22 15:35 UTC NOAA

KVYS 221535Z AUTO 18014KT 10SM CLR M04/M07 A3022 RMK AO2 T10411073


Station Type Date Time Source
KVYS Decoded METAR 2020/01/22 15:35 UTC NOAA

Peru, Illinois Valley Regional-Walter A Duncan Field Airport, IL, United States (KVYS) 41-21-07N 089-09-11W
Jan 22, 2020 - 10:35 AM EST / 2020.01.22 1535 UTC
Wind: from the S (180 degrees) at 16 MPH (14 KT):0
Visibility: 10 mile(s):0
Sky conditions: clear
Temperature: 24.6 F (-4.1 C)
Windchill: 12 F (-11 C):1
Dew Point: 18.9 F (-7.3 C)
Relative Humidity: 78%
Pressure (altimeter): 30.22 in. Hg (1023 hPa)
ob: KVYS 221535Z AUTO 18014KT 10SM CLR M04/M07 A3022 RMK AO2 T10411073
cycle: 15

Station Type Date Time Source
KVYS TAF UTC NOAA

Error!

Example: see airport list